createdAt,value
2016-06-21T00:00:07.416Z,0
2016-06-21T00:01:07.446Z,0
2016-06-21T00:02:08.046Z,0
2016-06-21T00:03:06.850Z,0
2016-06-21T00:05:06.914Z,0
2016-06-21T00:06:08.145Z,0
2016-06-21T00:07:06.958Z,0
2016-06-21T00:09:21.931Z,0
2016-06-21T00:10:22.510Z,0
2016-06-21T00:11:22.535Z,0
2016-06-21T00:12:21.333Z,0
2016-06-21T00:13:07.745Z,0
2016-06-21T00:14:08.364Z,0
2016-06-21T00:15:07.756Z,0
2016-06-21T00:16:07.172Z,0
2016-06-21T00:17:07.810Z,0
2016-06-21T00:18:07.264Z,0
2016-06-21T00:19:07.861Z,0
2016-06-21T00:20:08.498Z,0
2016-06-21T00:21:08.541Z,0
2016-06-21T00:22:08.559Z,0
2016-06-21T00:23:07.360Z,0
2016-06-21T00:24:07.990Z,0
2016-06-21T00:25:21.662Z,0
2016-06-21T00:27:08.062Z,0
2016-06-21T00:28:08.715Z,0
2016-06-21T00:29:08.104Z,0
2016-06-21T00:30:08.143Z,0
2016-06-21T00:31:08.167Z,0
2016-06-21T00:32:06.959Z,0
2016-06-21T00:33:07.600Z,0
2016-06-21T00:35:08.270Z,0
2016-06-21T00:36:08.287Z,0
2016-06-21T00:37:08.318Z,0
2016-06-21T00:38:08.332Z,0
2016-06-21T00:39:08.362Z,0
2016-06-21T00:40:23.259Z,0
2016-06-21T00:41:07.801Z,0
2016-06-21T00:42:08.438Z,0
2016-06-21T00:43:09.086Z,0
2016-06-21T00:44:07.868Z,0
2016-06-21T00:45:08.503Z,0
2016-06-21T00:46:08.541Z,0
2016-06-21T00:47:08.558Z,0
2016-06-21T00:48:07.984Z,0
2016-06-21T00:49:09.217Z,0
2016-06-21T00:50:08.627Z,0
2016-06-21T00:51:08.045Z,0
2016-06-21T00:52:08.064Z,0
2016-06-21T00:53:08.086Z,0
2016-06-21T00:54:09.342Z,0
2016-06-21T00:55:08.758Z,0
2016-06-21T00:56:08.785Z,0
2016-06-21T00:57:08.799Z,0
2016-06-21T00:58:08.219Z,0
2016-06-21T00:59:08.258Z,0
2016-06-21T01:00:22.550Z,0
2016-06-21T01:01:23.785Z,0
2016-06-21T01:02:08.333Z,0
2016-06-21T01:03:08.960Z,0
2016-06-21T01:04:09.583Z,0
2016-06-21T01:05:08.412Z,0
2016-06-21T01:06:08.425Z,0
2016-06-21T01:07:07.821Z,0
2016-06-21T01:08:23.346Z,0
2016-06-21T01:10:09.746Z,0
2016-06-21T01:11:09.159Z,0
2016-06-21T01:12:24.063Z,0
2016-06-21T01:13:09.223Z,0
2016-06-21T01:14:09.238Z,0
2016-06-21T01:15:09.286Z,0
2016-06-21T01:16:08.682Z,0
2016-06-21T01:17:08.692Z,0
2016-06-21T01:18:08.116Z,0
2016-06-21T01:19:09.374Z,0
2016-06-21T01:20:23.648Z,0
2016-06-21T01:21:09.397Z,0
2016-06-21T01:22:08.824Z,0
2016-06-21T01:23:09.468Z,0
2016-06-21T01:24:09.486Z,0
2016-06-21T01:25:23.767Z,0
2016-06-21T01:26:08.919Z,0
2016-06-21T01:27:10.144Z,0
2016-06-21T01:28:23.241Z,0
2016-06-21T01:29:08.983Z,0
2016-06-21T01:30:09.027Z,0
2016-06-21T01:31:23.296Z,0
2016-06-21T01:32:09.104Z,0
2016-06-21T01:33:10.316Z,0
2016-06-21T01:34:23.370Z,0
2016-06-21T01:36:10.396Z,0
2016-06-21T01:37:08.565Z,0
2016-06-21T01:38:09.206Z,0
2016-06-21T01:39:09.256Z,0
2016-06-21T01:40:08.651Z,0
2016-06-21T01:41:09.274Z,0
2016-06-21T01:42:09.310Z,0
2016-06-21T01:43:09.338Z,0
2016-06-21T01:44:24.233Z,0
2016-06-21T01:45:08.776Z,0
2016-06-21T01:46:09.411Z,0
2016-06-21T01:47:10.031Z,0
2016-06-21T01:48:08.850Z,0
2016-06-21T01:49:10.098Z,0
2016-06-21T01:50:10.127Z,0
2016-06-21T01:52:08.951Z,0
2016-06-21T01:53:10.195Z,0
2016-06-21T01:54:09.611Z,0
2016-06-21T01:55:09.630Z,0
2016-06-21T01:56:10.903Z,0
2016-06-21T01:57:25.170Z,0
2016-06-21T01:58:24.580Z,0
2016-06-21T01:59:10.942Z,0
2016-06-21T02:00:24.628Z,0
2016-06-21T02:01:09.775Z,0
2016-06-21T02:02:09.803Z,0
2016-06-21T02:03:24.090Z,0
2016-06-21T02:04:11.066Z,0
2016-06-21T02:05:09.266Z,0
2016-06-21T02:06:09.903Z,0
2016-06-21T02:07:09.319Z,0
2016-06-21T02:08:10.587Z,0
2016-06-21T02:10:09.991Z,0
2016-06-21T02:11:11.275Z,0
2016-06-21T02:12:10.051Z,4
2016-06-21T02:13:10.679Z,4
2016-06-21T02:14:09.482Z,0
2016-06-21T02:15:25.006Z,0
2016-06-21T02:16:10.760Z,4
2016-06-21T02:17:09.563Z,4
2016-06-21T02:18:10.796Z,4
2016-06-21T02:19:10.240Z,4
2016-06-21T02:20:10.846Z,4
2016-06-21T02:21:10.877Z,4
2016-06-21T02:22:10.301Z,8
2016-06-21T02:23:10.316Z,8
2016-06-21T02:24:10.341Z,4
2016-06-21T02:25:10.361Z,4
2016-06-21T02:27:11.655Z,8
2016-06-21T02:28:10.429Z,8
2016-06-21T02:29:11.072Z,8
2016-06-21T02:30:10.483Z,12
2016-06-21T02:32:09.913Z,12
2016-06-21T02:33:09.953Z,12
2016-06-21T02:34:11.192Z,12
2016-06-21T02:35:11.226Z,12
2016-06-21T02:36:11.847Z,12
2016-06-21T02:37:11.282Z,16
2016-06-21T02:38:11.911Z,16
2016-06-21T02:39:11.968Z,16
2016-06-21T02:40:10.742Z,20
2016-06-21T02:41:25.645Z,20
2016-06-21T02:42:10.829Z,20
2016-06-21T02:43:11.404Z,24
2016-06-21T02:44:10.815Z,24
2016-06-21T02:45:25.740Z,32
2016-06-21T02:48:10.939Z,36
2016-06-21T02:49:11.570Z,40
2016-06-21T02:50:10.991Z,48
2016-06-21T02:51:10.994Z,44
2016-06-21T02:53:12.271Z,48
2016-06-21T02:54:12.303Z,48
2016-06-21T02:55:25.979Z,52
2016-06-21T02:56:11.735Z,52
2016-06-21T02:57:11.765Z,52
2016-06-21T02:58:10.566Z,52
2016-06-21T02:59:11.194Z,52
2016-06-21T03:00:11.233Z,52
2016-06-21T03:01:26.758Z,52
2016-06-21T03:02:11.902Z,52
2016-06-21T03:03:25.579Z,56
2016-06-21T03:04:26.217Z,60
2016-06-21T03:05:11.954Z,64
2016-06-21T03:06:11.989Z,68
2016-06-21T03:07:10.795Z,72
2016-06-21T03:08:12.637Z,72
2016-06-21T03:09:12.698Z,72
2016-06-21T03:10:26.371Z,80
2016-06-21T03:11:10.890Z,80
2016-06-21T03:13:11.547Z,108
2016-06-21T03:14:12.815Z,128
2016-06-21T03:15:12.202Z,144
2016-06-21T03:17:12.244Z,156
2016-06-21T03:18:12.260Z,148
2016-06-21T03:19:26.564Z,144
2016-06-21T03:20:12.324Z,140
2016-06-21T03:21:12.343Z,156
2016-06-21T03:22:12.390Z,184
2016-06-21T03:23:11.192Z,172
2016-06-21T03:24:12.453Z,152
2016-06-21T03:25:13.068Z,156
2016-06-21T03:26:11.870Z,160
2016-06-21T03:28:13.136Z,160
2016-06-21T03:29:13.169Z,164
2016-06-21T03:30:11.963Z,152
2016-06-21T03:31:13.209Z,144
2016-06-21T03:32:12.622Z,156
2016-06-21T03:33:26.916Z,156
2016-06-21T03:34:27.572Z,148
2016-06-21T03:35:26.971Z,164
2016-06-21T03:36:26.978Z,180
2016-06-21T03:37:12.139Z,184
2016-06-21T03:39:12.187Z,192
2016-06-21T03:40:12.186Z,180
2016-06-21T03:41:12.229Z,188
2016-06-21T03:42:12.273Z,196
2016-06-21T03:43:12.270Z,196
2016-06-21T03:44:27.810Z,220
2016-06-21T03:45:12.930Z,228
2016-06-21T03:46:13.555Z,240
2016-06-21T03:47:27.868Z,252
2016-06-21T03:48:12.431Z,252
2016-06-21T03:49:26.694Z,248
2016-06-21T03:50:27.942Z,260
2016-06-21T03:51:13.085Z,268
2016-06-21T03:52:13.730Z,276
2016-06-21T03:53:13.130Z,300
2016-06-21T03:54:13.171Z,308
2016-06-21T03:57:13.250Z,272
2016-06-21T03:58:12.643Z,272
2016-06-21T03:59:13.277Z,280
2016-06-21T04:00:13.918Z,292
2016-06-21T04:01:13.341Z,308
2016-06-21T04:02:12.125Z,320
2016-06-21T04:03:14.002Z,344
2016-06-21T04:04:14.017Z,376
2016-06-21T04:05:13.417Z,400
2016-06-21T04:06:27.723Z,432
2016-06-21T04:07:12.252Z,488
2016-06-21T04:08:27.154Z,544
2016-06-21T04:09:27.795Z,572
2016-06-21T04:10:14.179Z,604
2016-06-21T04:11:12.957Z,608
2016-06-21T04:12:27.319Z,584
2016-06-21T04:13:13.615Z,612
2016-06-21T04:14:13.663Z,644
2016-06-21T04:15:13.071Z,672
2016-06-21T04:16:14.294Z,708
2016-06-21T04:17:14.338Z,800
2016-06-21T04:19:13.785Z,864
2016-06-21T04:20:14.399Z,944
2016-06-21T04:21:13.801Z,976
2016-06-21T04:22:27.510Z,984
2016-06-21T04:23:13.892Z,1008
2016-06-21T04:24:12.670Z,1060
2016-06-21T04:25:28.188Z,1212
2016-06-21T04:27:13.964Z,1264
2016-06-21T04:28:13.993Z,1208
2016-06-21T04:29:14.619Z,1112
2016-06-21T04:30:28.298Z,1020
2016-06-21T04:31:12.841Z,968
2016-06-21T04:32:13.496Z,920
2016-06-21T04:33:14.106Z,836
2016-06-21T04:34:13.523Z,700
2016-06-21T04:35:14.215Z,632
2016-06-21T04:37:14.214Z,724
2016-06-21T04:38:28.516Z,844
2016-06-21T04:39:14.294Z,900
2016-06-21T04:40:13.061Z,988
2016-06-21T04:41:29.196Z,1216
2016-06-21T04:42:13.758Z,1364
2016-06-21T04:43:14.348Z,1520
2016-06-21T04:44:14.378Z,1628
2016-06-21T04:45:13.802Z,1660
2016-06-21T04:46:15.040Z,1740
2016-06-21T04:47:13.842Z,1632
2016-06-21T04:48:15.092Z,1644
2016-06-21T04:49:29.384Z,1928
2016-06-21T04:50:14.543Z,1952
2016-06-21T04:51:13.340Z,2024
2016-06-21T04:52:28.842Z,1824
2016-06-21T04:53:14.047Z,1736
2016-06-21T04:54:29.504Z,1472
2016-06-21T04:55:14.049Z,1368
2016-06-21T04:56:29.550Z,1344
2016-06-21T04:57:15.308Z,1540
2016-06-21T04:58:14.114Z,1564
2016-06-21T04:59:15.357Z,1804
2016-06-21T05:00:14.787Z,1868
2016-06-21T05:01:15.413Z,1912
2016-06-21T05:02:15.440Z,2072
2016-06-21T05:03:14.234Z,1764
2016-06-21T05:04:14.256Z,1704
2016-06-21T05:05:15.506Z,1712
2016-06-21T05:06:14.910Z,1504
2016-06-21T05:07:14.957Z,1240
2016-06-21T05:08:14.349Z,1116
2016-06-21T05:09:14.396Z,920
2016-06-21T05:10:29.891Z,932
2016-06-21T05:11:14.423Z,1020
2016-06-21T05:12:29.978Z,952
2016-06-21T05:13:15.083Z,1076
2016-06-21T05:14:15.122Z,1012
2016-06-21T05:15:14.535Z,1200
2016-06-21T05:16:13.946Z,1292
2016-06-21T05:17:15.193Z,1208
2016-06-21T05:18:14.606Z,1292
2016-06-21T05:19:14.629Z,1440
2016-06-21T05:20:15.265Z,1360
2016-06-21T05:21:15.895Z,1100
2016-06-21T05:22:15.318Z,1052
2016-06-21T05:23:14.725Z,1112
2016-06-21T05:24:14.754Z,1040
2016-06-21T05:25:29.667Z,1144
2016-06-21T05:26:15.410Z,1136
2016-06-21T05:27:30.341Z,1060
2016-06-21T05:28:14.250Z,920
2016-06-21T05:29:14.265Z,916
2016-06-21T05:30:15.518Z,1056
2016-06-21T05:31:16.155Z,1112
2016-06-21T05:32:15.553Z,1088
2016-06-21T05:33:14.979Z,1076
2016-06-21T05:34:15.614Z,1108
2016-06-21T05:35:15.650Z,1180
2016-06-21T05:36:15.041Z,1096
2016-06-21T05:37:15.673Z,1196
2016-06-21T05:38:15.122Z,1156
2016-06-21T05:39:15.140Z,1160
2016-06-21T05:40:15.153Z,1240
2016-06-21T05:41:29.438Z,1224
2016-06-21T05:42:14.588Z,1332
2016-06-21T05:43:15.222Z,1156
2016-06-21T05:44:15.849Z,1088
2016-06-21T05:45:15.263Z,1276
2016-06-21T05:46:15.896Z,1224
2016-06-21T05:47:15.937Z,1360
2016-06-21T05:48:16.580Z,1508
2016-06-21T05:49:14.744Z,1432
2016-06-21T05:50:16.005Z,1420
2016-06-21T05:51:30.294Z,1756
2016-06-21T05:52:16.045Z,1512
2016-06-21T05:53:16.667Z,1844
2016-06-21T05:54:16.101Z,1988
2016-06-21T05:55:30.386Z,2472
2016-06-21T05:56:15.526Z,2220
2016-06-21T05:57:30.431Z,2736
2016-06-21T05:58:16.208Z,2780
2016-06-21T05:59:29.864Z,2452
2016-06-21T06:00:16.852Z,2356
2016-06-21T06:01:16.888Z,2064
2016-06-21T06:02:15.670Z,1712
2016-06-21T06:04:16.966Z,1948
2016-06-21T06:05:16.378Z,1748
2016-06-21T06:06:16.371Z,1524
2016-06-21T06:07:16.416Z,1592
2016-06-21T06:08:15.830Z,1680
2016-06-21T06:09:15.243Z,1984
2016-06-21T06:10:17.092Z,2072
2016-06-21T06:11:30.777Z,1932
2016-06-21T06:12:16.535Z,2032
2016-06-21T06:13:30.828Z,2500
2016-06-21T06:14:31.469Z,2432
2016-06-21T06:15:17.217Z,2604
2016-06-21T06:16:17.236Z,2456
2016-06-21T06:17:15.435Z,2144
2016-06-21T06:18:17.295Z,1892
2016-06-21T06:19:16.696Z,2148
2016-06-21T06:20:30.985Z,2600
2016-06-21T06:21:16.739Z,3180
2016-06-21T06:22:15.553Z,3192
2016-06-21T06:23:30.455Z,4292
2016-06-21T06:24:17.463Z,4404
2016-06-21T06:25:15.637Z,4432
2016-06-21T06:26:17.480Z,3976
2016-06-21T06:27:16.881Z,2800
2016-06-21T06:28:16.319Z,2084
2016-06-21T06:29:31.232Z,2464
2016-06-21T06:30:16.374Z,2900
2016-06-21T06:31:15.776Z,3484
2016-06-21T06:32:16.418Z,3632
2016-06-21T06:33:17.043Z,3480
2016-06-21T06:34:16.456Z,4400
2016-06-21T06:35:17.087Z,4340
2016-06-21T06:36:17.111Z,4788
2016-06-21T06:37:16.521Z,5052
2016-06-21T06:38:17.770Z,5268
2016-06-21T06:39:17.214Z,5716
2016-06-21T06:40:32.098Z,7340
2016-06-21T06:41:17.243Z,7960
2016-06-21T06:42:17.263Z,6256
2016-06-21T06:43:17.893Z,5232
2016-06-21T06:44:17.337Z,3976
2016-06-21T06:45:31.623Z,4328
2016-06-21T06:46:16.141Z,4704
2016-06-21T06:47:16.762Z,5244
2016-06-21T06:48:31.676Z,4968
2016-06-21T06:49:18.034Z,5204
2016-06-21T06:50:17.458Z,5040
2016-06-21T06:51:17.495Z,4300
2016-06-21T06:52:16.894Z,3888
2016-06-21T06:53:16.924Z,4340
2016-06-21T06:54:16.955Z,4380
2016-06-21T06:55:32.456Z,5580
2016-06-21T06:56:16.996Z,5072
2016-06-21T06:57:17.650Z,4460
2016-06-21T06:59:16.475Z,4288
2016-06-21T07:00:31.996Z,4764
2016-06-21T07:01:17.130Z,5784
2016-06-21T07:02:17.767Z,5760
2016-06-21T07:03:17.795Z,5332
2016-06-21T07:04:18.413Z,4820
2016-06-21T07:05:17.220Z,5184
2016-06-21T07:06:17.254Z,5612
2016-06-21T07:07:18.503Z,5200
2016-06-21T07:08:17.919Z,4168
2016-06-21T07:09:17.342Z,3748
2016-06-21T07:10:31.613Z,3784
2016-06-21T07:11:17.986Z,3800
2016-06-21T07:12:18.014Z,4180
2016-06-21T07:13:18.026Z,4636
2016-06-21T07:14:18.682Z,5880
2016-06-21T07:15:17.483Z,6636
2016-06-21T07:16:16.895Z,6072
2016-06-21T07:17:17.529Z,5504
2016-06-21T07:18:33.044Z,6388
2016-06-21T07:19:18.191Z,7148
2016-06-21T07:20:17.600Z,8332
2016-06-21T07:21:17.625Z,7836
2016-06-21T07:22:17.651Z,7860
2016-06-21T07:23:18.309Z,7624
2016-06-21T07:24:32.575Z,8172
2016-06-21T07:25:18.358Z,7444
2016-06-21T07:27:18.392Z,5056
2016-06-21T07:28:19.031Z,4172
2016-06-21T07:29:18.454Z,4832
2016-06-21T07:30:17.859Z,6612
2016-06-21T07:32:32.798Z,6544
2016-06-21T07:33:18.600Z,6584
2016-06-21T07:34:18.595Z,7108
2016-06-21T07:36:18.631Z,5688
2016-06-21T07:37:18.647Z,5204
2016-06-21T07:38:18.058Z,4804
2016-06-21T07:39:18.101Z,4644
2016-06-21T07:40:18.730Z,4148
2016-06-21T07:41:18.160Z,3952
2016-06-21T07:42:18.163Z,4132
2016-06-21T07:43:18.218Z,4464
2016-06-21T07:44:18.838Z,4208
2016-06-21T07:45:33.735Z,5432
2016-06-21T07:46:19.489Z,5360
2016-06-21T07:47:18.287Z,5536
2016-06-21T07:48:33.805Z,5716
2016-06-21T07:49:33.820Z,4948
2016-06-21T07:50:18.980Z,4000
2016-06-21T07:51:18.431Z,3672
2016-06-21T07:52:17.807Z,3460
2016-06-21T07:53:19.049Z,3508
2016-06-21T07:54:19.063Z,3432
2016-06-21T07:55:19.086Z,4336
2016-06-21T07:56:19.130Z,5404
2016-06-21T07:57:18.531Z,7412
2016-06-21T07:59:19.799Z,9312
2016-06-21T08:00:19.263Z,10500
2016-06-21T08:01:19.850Z,13760
2016-06-21T08:02:19.286Z,17728
2016-06-21T08:03:19.301Z,20128
2016-06-21T08:04:33.606Z,22400
2016-06-21T08:05:18.759Z,17760
2016-06-21T08:06:19.383Z,15836
2016-06-21T08:07:19.393Z,15376
2016-06-21T08:08:18.811Z,13720
2016-06-21T08:09:19.453Z,10740
2016-06-21T08:10:19.482Z,8940
2016-06-21T08:11:18.294Z,7720
2016-06-21T08:12:19.533Z,6332
2016-06-21T08:13:20.168Z,5612
2016-06-21T08:14:19.594Z,5652
2016-06-21T08:15:19.004Z,5960
2016-06-21T08:16:19.631Z,6840
2016-06-21T08:17:19.690Z,7548
2016-06-21T08:18:19.085Z,7772
2016-06-21T08:19:19.711Z,8196
2016-06-21T08:20:34.011Z,8956
2016-06-21T08:21:19.774Z,8852
2016-06-21T08:22:19.801Z,8728
2016-06-21T08:23:19.807Z,8556
2016-06-21T08:24:33.507Z,8844
2016-06-21T08:25:19.881Z,8608
2016-06-21T08:26:19.287Z,7704
2016-06-21T08:27:19.315Z,7152
2016-06-21T08:28:20.564Z,5888
2016-06-21T08:29:34.266Z,4988
2016-06-21T08:30:20.617Z,4564
2016-06-21T08:31:34.919Z,4004
2016-06-21T08:32:20.069Z,3644
2016-06-21T08:33:33.890Z,3496
2016-06-21T08:34:18.884Z,3284
2016-06-21T08:35:34.423Z,2788
2016-06-21T08:36:19.554Z,2772
2016-06-21T08:37:19.586Z,2860
2016-06-21T08:38:34.480Z,2828
2016-06-21T08:39:19.634Z,2704
2016-06-21T08:41:19.673Z,2220
2016-06-21T08:42:34.592Z,1844
2016-06-21T08:43:20.339Z,1996
2016-06-21T08:44:20.356Z,2336
2016-06-21T08:45:20.395Z,2316
2016-06-21T08:46:20.444Z,2336
2016-06-21T08:47:19.833Z,2524
2016-06-21T08:48:19.882Z,2568
2016-06-21T08:49:19.906Z,2584
2016-06-21T08:50:21.129Z,2636
2016-06-21T08:51:20.560Z,2760
2016-06-21T08:52:21.183Z,2944
2016-06-21T08:53:34.870Z,3268
2016-06-21T08:54:20.611Z,3636
2016-06-21T08:55:20.668Z,4036
2016-06-21T08:56:35.553Z,4460
2016-06-21T08:57:20.710Z,4728
2016-06-21T08:58:20.725Z,5372
2016-06-21T08:59:20.154Z,6224
2016-06-21T09:00:35.059Z,7100
2016-06-21T09:01:20.202Z,7444
2016-06-21T09:02:20.831Z,7720
2016-06-21T09:03:20.243Z,7916
2016-06-21T09:04:21.479Z,6264
2016-06-21T09:05:20.302Z,5760
2016-06-21T09:06:21.546Z,5320
2016-06-21T09:07:35.834Z,4840
2016-06-21T09:08:21.613Z,4720
2016-06-21T09:09:21.006Z,4652
2016-06-21T09:10:19.834Z,4380
2016-06-21T09:11:20.480Z,3736
2016-06-21T09:12:21.092Z,2864
2016-06-21T09:13:21.130Z,2640
2016-06-21T09:14:20.529Z,2448
2016-06-21T09:15:21.168Z,2280
2016-06-21T09:16:20.603Z,2112
2016-06-21T09:17:21.215Z,2032
2016-06-21T09:18:20.635Z,1792
2016-06-21T09:19:20.659Z,1608
2016-06-21T09:21:35.599Z,1076
2016-06-21T09:22:21.972Z,1068
2016-06-21T09:23:35.654Z,1416
2016-06-21T09:24:20.776Z,1764
2016-06-21T09:25:35.714Z,2176
2016-06-21T09:28:22.102Z,3028
2016-06-21T09:29:20.918Z,3376
2016-06-21T09:30:22.163Z,4036
2016-06-21T09:31:21.603Z,4516
2016-06-21T09:32:21.618Z,5204
2016-06-21T09:33:21.642Z,6256
2016-06-21T09:34:22.263Z,7460
2016-06-21T09:35:22.290Z,8560
2016-06-21T09:36:21.702Z,8580
2016-06-21T09:37:21.738Z,10796
2016-06-21T09:38:21.739Z,14436
2016-06-21T09:39:35.451Z,12632
2016-06-21T09:40:21.204Z,12368
2016-06-21T09:41:21.837Z,12368
2016-06-21T09:42:36.755Z,13264
2016-06-21T09:43:21.892Z,13984
2016-06-21T09:44:21.908Z,13536
2016-06-21T09:45:21.331Z,13428
2016-06-21T09:46:21.951Z,12868
2016-06-21T09:47:21.388Z,12160
2016-06-21T09:48:21.652Z,9972
2016-06-21T09:49:22.065Z,8032
2016-06-21T09:50:20.829Z,6428
2016-06-21T09:51:22.726Z,5156
2016-06-21T09:52:21.515Z,4952
2016-06-21T09:53:21.527Z,5308
2016-06-21T09:55:35.872Z,8192
2016-06-21T09:56:21.615Z,8984
2016-06-21T09:57:21.082Z,9968
2016-06-21T09:58:37.152Z,11352
2016-06-21T09:59:37.181Z,12896
2016-06-21T10:00:22.341Z,13976
2016-06-21T10:01:22.951Z,16460
2016-06-21T10:02:23.008Z,16896
2016-06-21T10:03:22.423Z,17440
2016-06-21T10:04:22.433Z,15396
2016-06-21T10:05:21.866Z,16136
2016-06-21T10:06:22.517Z,11976
2016-06-21T10:07:22.528Z,10400
2016-06-21T10:09:23.183Z,7780
2016-06-21T10:10:37.487Z,7144
2016-06-21T10:11:22.635Z,6620
2016-06-21T10:12:22.670Z,5644
2016-06-21T10:13:22.097Z,4648
2016-06-21T10:15:23.354Z,3620
2016-06-21T10:16:23.392Z,3760
2016-06-21T10:17:22.797Z,4116
2016-06-21T10:18:22.218Z,4236
2016-06-21T10:19:37.115Z,3956
2016-06-21T10:21:22.910Z,3792
2016-06-21T10:22:23.536Z,3824
2016-06-21T10:23:22.961Z,4140
2016-06-21T10:24:37.257Z,4168
2016-06-21T10:25:23.646Z,4156
2016-06-21T10:26:23.706Z,4220
2016-06-21T10:27:23.685Z,4208
2016-06-21T10:28:21.861Z,4216
2016-06-21T10:29:22.494Z,4440
2016-06-21T10:30:37.420Z,5016
2016-06-21T10:31:23.158Z,5252
2016-06-21T10:32:23.190Z,5516
2016-06-21T10:33:23.216Z,5720
2016-06-21T10:34:23.861Z,5924
2016-06-21T10:35:23.898Z,6044
2016-06-21T10:36:23.299Z,6064
2016-06-21T10:37:23.923Z,5940
2016-06-21T10:38:22.712Z,5300
2016-06-21T10:39:22.787Z,5232
2016-06-21T10:40:22.782Z,5232
2016-06-21T10:41:38.277Z,5168
2016-06-21T10:42:37.092Z,5116
2016-06-21T10:43:22.930Z,5216
2016-06-21T10:44:22.868Z,5516
2016-06-21T10:45:22.294Z,5884
2016-06-21T10:46:22.951Z,6508
2016-06-21T10:48:23.002Z,8096
2016-06-21T10:49:23.609Z,9124
2016-06-21T10:50:23.683Z,10428
2016-06-21T10:51:23.707Z,11440
2016-06-21T10:52:38.620Z,12212
2016-06-21T10:53:23.132Z,12532
2016-06-21T10:54:23.734Z,12976
2016-06-21T10:55:23.169Z,12892
2016-06-21T10:56:23.186Z,12816
2016-06-21T10:57:23.829Z,12820
2016-06-21T10:58:38.117Z,12924
2016-06-21T10:59:23.885Z,12900
2016-06-21T11:00:23.914Z,12820
2016-06-21T11:01:24.553Z,12684
2016-06-21T11:02:23.961Z,12416
2016-06-21T11:03:24.010Z,11832
2016-06-21T11:04:23.406Z,11536
2016-06-21T11:05:23.433Z,11536
2016-06-21T11:06:24.683Z,11568
2016-06-21T11:07:24.114Z,11360
2016-06-21T11:08:22.899Z,11256
2016-06-21T11:09:23.546Z,11696
2016-06-21T11:10:24.167Z,11976
2016-06-21T11:12:24.216Z,12428
2016-06-21T11:13:38.525Z,13220
2016-06-21T11:14:38.567Z,13612
2016-06-21T11:15:24.923Z,14024
2016-06-21T11:16:24.352Z,14416
2016-06-21T11:17:24.387Z,14396
2016-06-21T11:18:23.808Z,14388
2016-06-21T11:19:25.060Z,13964
2016-06-21T11:20:25.067Z,13956
2016-06-21T11:21:23.871Z,13964
2016-06-21T11:22:23.950Z,13944
2016-06-21T11:23:24.537Z,13948
2016-06-21T11:24:23.357Z,13936
2016-06-21T11:25:24.605Z,13524
2016-06-21T11:26:23.997Z,13028
2016-06-21T11:27:24.037Z,12668
2016-06-21T11:28:24.694Z,12220
2016-06-21T11:29:25.292Z,12276
2016-06-21T11:30:39.017Z,12644
2016-06-21T11:31:25.364Z,12588
2016-06-21T11:32:24.169Z,12400
2016-06-21T11:33:24.499Z,11964
2016-06-21T11:34:24.250Z,11744
2016-06-21T11:35:24.866Z,11496
2016-06-21T11:36:23.675Z,10944
2016-06-21T11:38:24.331Z,10192
2016-06-21T11:39:39.302Z,9788
2016-06-21T11:40:25.623Z,9560
2016-06-21T11:41:25.026Z,9376
2016-06-21T11:42:25.052Z,9068
2016-06-21T11:43:24.480Z,8860
2016-06-21T11:44:25.705Z,8652
2016-06-21T11:45:39.411Z,8428
2016-06-21T11:46:25.217Z,8508
2016-06-21T11:47:25.191Z,8548
2016-06-21T11:48:25.843Z,8408
2016-06-21T11:49:24.636Z,7900
2016-06-21T11:50:24.670Z,7976
2016-06-21T11:51:25.312Z,8656
2016-06-21T11:52:24.106Z,9116
2016-06-21T11:53:25.969Z,9592
2016-06-21T11:54:25.982Z,9976
2016-06-21T11:55:24.812Z,10112
2016-06-21T11:56:25.449Z,10336
2016-06-21T11:57:26.078Z,10556
2016-06-21T11:58:24.275Z,10452
2016-06-21T12:00:26.165Z,10328
2016-06-21T12:01:25.591Z,10024
2016-06-21T12:02:26.228Z,10344
2016-06-21T12:03:25.027Z,10404
2016-06-21T12:04:25.686Z,10460
2016-06-21T12:05:24.494Z,10480
2016-06-21T12:06:25.108Z,10448
2016-06-21T12:07:26.378Z,10068
2016-06-21T12:08:24.553Z,10144
2016-06-21T12:09:25.839Z,10804
2016-06-21T12:10:24.607Z,11244
2016-06-21T12:11:25.862Z,11292
2016-06-21T12:12:25.907Z,11844
2016-06-21T12:13:25.936Z,11368
2016-06-21T12:14:25.331Z,12608
2016-06-21T12:15:26.597Z,12780
2016-06-21T12:16:26.016Z,11828
2016-06-21T12:17:40.924Z,11488
2016-06-21T12:18:26.072Z,11464
2016-06-21T12:20:26.121Z,11172
2016-06-21T12:21:24.954Z,10508
2016-06-21T12:22:24.947Z,10868
2016-06-21T12:23:26.218Z,11684
2016-06-21T12:24:26.228Z,10428
2016-06-21T12:25:25.683Z,9920
2016-06-21T12:26:26.282Z,8672
2016-06-21T12:27:26.922Z,8196
2016-06-21T12:28:26.341Z,7848
2016-06-21T12:29:26.387Z,7468
2016-06-21T12:30:26.989Z,7024
2016-06-21T12:31:27.040Z,6584
2016-06-21T12:32:25.862Z,6088
2016-06-21T12:33:41.354Z,5400
2016-06-21T12:34:27.107Z,5040
2016-06-21T12:35:25.935Z,4720
2016-06-21T12:36:26.579Z,4308
2016-06-21T12:37:25.996Z,3900
2016-06-21T12:38:26.663Z,3500
2016-06-21T12:39:26.649Z,3096
2016-06-21T12:40:26.676Z,2888
2016-06-21T12:41:27.307Z,2820
2016-06-21T12:44:26.181Z,2904
2016-06-21T12:45:27.428Z,3044
2016-06-21T12:46:27.439Z,3232
2016-06-21T12:47:25.651Z,3500
2016-06-21T12:48:27.501Z,3580
2016-06-21T12:49:41.186Z,3768
2016-06-21T12:50:41.825Z,3956
2016-06-21T12:51:27.599Z,4104
2016-06-21T12:52:27.606Z,4228
2016-06-21T12:53:27.642Z,4468
2016-06-21T12:54:27.673Z,4752
2016-06-21T12:55:27.703Z,4868
2016-06-21T12:56:27.729Z,5036
2016-06-21T12:57:26.531Z,5132
2016-06-21T12:58:27.195Z,5276
2016-06-21T12:59:27.201Z,5544
2016-06-21T13:00:27.831Z,9932
2016-06-21T13:01:27.858Z,9952
2016-06-21T13:02:27.918Z,10668
2016-06-21T13:04:27.325Z,12644
2016-06-21T13:05:41.636Z,11108
2016-06-21T13:06:27.418Z,11384
2016-06-21T13:07:26.822Z,10556
2016-06-21T13:08:26.864Z,9584
2016-06-21T13:09:27.692Z,8664
2016-06-21T13:10:41.149Z,9404
2016-06-21T13:11:27.539Z,9160
2016-06-21T13:12:27.554Z,8056
2016-06-21T13:13:41.842Z,8424
2016-06-21T13:14:26.986Z,8880
2016-06-21T13:15:27.024Z,8360
2016-06-21T13:17:27.099Z,8280
2016-06-21T13:18:27.718Z,7576
2016-06-21T13:19:27.739Z,7204
2016-06-21T13:20:41.457Z,7376
2016-06-21T13:21:27.806Z,7536
2016-06-21T13:22:27.829Z,7044
2016-06-21T13:23:28.462Z,7244
2016-06-21T13:24:27.884Z,7196
2016-06-21T13:25:27.291Z,8160
2016-06-21T13:26:27.329Z,7824
2016-06-21T13:27:27.971Z,8180
2016-06-21T13:28:27.994Z,7260
2016-06-21T13:29:26.810Z,7316
2016-06-21T13:30:28.062Z,3392
2016-06-21T13:31:42.380Z,8096
2016-06-21T13:32:28.722Z,7688
2016-06-21T13:33:28.149Z,9192
2016-06-21T13:34:42.433Z,8160
2016-06-21T13:35:28.812Z,7528
2016-06-21T13:36:27.008Z,8720
2016-06-21T13:37:27.651Z,7364
2016-06-21T13:38:27.703Z,7276
2016-06-21T13:39:28.303Z,8436
2016-06-21T13:41:28.362Z,7908
2016-06-21T13:42:28.386Z,7476
2016-06-21T13:43:27.823Z,5956
2016-06-21T13:45:27.856Z,7252
2016-06-21T13:46:27.892Z,8660
2016-06-21T13:47:29.148Z,6836
2016-06-21T13:48:27.951Z,7004
2016-06-21T13:49:29.197Z,6916
2016-06-21T13:50:27.994Z,7552
2016-06-21T13:51:28.033Z,7112
2016-06-21T13:52:42.340Z,3940
2016-06-21T13:53:28.087Z,5320
2016-06-21T13:54:27.511Z,7076
2016-06-21T13:55:28.986Z,6708
2016-06-21T13:56:28.167Z,7796
2016-06-21T13:57:29.408Z,3936
2016-06-21T13:58:28.222Z,4164
2016-06-21T13:59:43.124Z,4768
2016-06-21T14:00:28.315Z,8180
2016-06-21T14:01:27.688Z,5340
2016-06-21T14:02:29.540Z,6040
2016-06-21T14:03:28.365Z,8768
2016-06-21T14:04:28.391Z,6876
2016-06-21T14:05:27.800Z,5848
2016-06-21T14:06:29.060Z,5636
2016-06-21T14:07:29.701Z,5516
2016-06-21T14:08:43.390Z,5272
2016-06-21T14:09:29.152Z,5248
2016-06-21T14:11:29.198Z,5516
2016-06-21T14:13:29.849Z,6420
2016-06-21T14:14:29.876Z,6852
2016-06-21T14:15:28.698Z,9600
2016-06-21T14:16:29.402Z,6868
2016-06-21T14:17:29.978Z,6968
2016-06-21T14:18:28.823Z,6916
2016-06-21T14:19:28.186Z,8932
2016-06-21T14:20:28.833Z,9116
2016-06-21T14:21:29.471Z,8008
2016-06-21T14:22:29.489Z,5600
2016-06-21T14:23:30.157Z,7876